createdAt,value
2023-01-22T00:01:56.955Z,101117.41
2023-01-22T00:04:45.849Z,101110.09
2023-01-22T00:07:35.948Z,101116.09
2023-01-22T00:10:24.578Z,101117.75
2023-01-22T00:13:13.095Z,101110.06
2023-01-22T00:16:01.817Z,101112.09
2023-01-22T00:18:50.485Z,101121.41
2023-01-22T00:21:39.195Z,101114.44
2023-01-22T00:24:29.241Z,101114.44
2023-01-22T00:27:17.887Z,101114.09
2023-01-22T00:30:07.858Z,101124.78
2023-01-22T00:32:56.472Z,101120.75
2023-01-22T00:35:45.395Z,101115.06
2023-01-22T00:38:34.107Z,101117.91
2023-01-22T00:41:24.246Z,101111.06
2023-01-22T00:44:12.888Z,101117.09
2023-01-22T00:47:01.610Z,101118.22
2023-01-22T00:49:50.154Z,101127.44
2023-01-22T00:52:38.774Z,101127.59
2023-01-22T00:55:27.474Z,101135.97
2023-01-22T00:58:17.454Z,101140.28
2023-01-22T01:01:07.097Z,101142.06
2023-01-22T01:03:55.826Z,101142.06
2023-01-22T01:06:44.421Z,101149.09
2023-01-22T01:09:33.087Z,101146.44
2023-01-22T01:12:21.732Z,101150.25
2023-01-22T01:15:12.828Z,101147.94
2023-01-22T01:18:01.803Z,101142.88
2023-01-22T01:20:55.465Z,101149.09
2023-01-22T01:23:44.517Z,101141.38
2023-01-22T01:26:33.493Z,101145.91
2023-01-22T01:29:22.092Z,101147.41
2023-01-22T01:32:12.132Z,101150.59
2023-01-22T01:35:00.737Z,101144.91
2023-01-22T01:37:49.414Z,101140.94
2023-01-22T01:40:43.641Z,101141.09
2023-01-22T01:43:32.535Z,101137.09
2023-01-22T01:46:23.758Z,101138.91
2023-01-22T01:49:27.025Z,101126.44
2023-01-22T01:52:16.591Z,101133.09
2023-01-22T01:55:06.145Z,101130.44
2023-01-22T01:57:55.572Z,101133.59
2023-01-22T02:00:45.812Z,101137.13
2023-01-22T02:03:34.755Z,101136.84
2023-01-22T02:06:24.782Z,101135.75
2023-01-22T02:09:15.626Z,101147.94
2023-01-22T02:12:04.899Z,101146.06
2023-01-22T02:14:53.720Z,101155.25
2023-01-22T02:17:42.582Z,101154.75
2023-01-22T02:20:36.501Z,101161.56
2023-01-22T02:23:25.799Z,101162.44
2023-01-22T02:26:14.446Z,101162.13
2023-01-22T02:29:03.094Z,101164.28
2023-01-22T02:31:51.770Z,101170.31
2023-01-22T02:34:40.444Z,101168.84
2023-01-22T02:37:30.382Z,101163.81
2023-01-22T02:40:19.498Z,101170.13
2023-01-22T02:43:08.231Z,101168.28
2023-01-22T02:45:56.829Z,101169.28
2023-01-22T02:51:34.024Z,101163.53
2023-01-22T02:54:24.045Z,101167.84
2023-01-22T02:57:12.671Z,101169.16
2023-01-22T03:00:01.273Z,101170.00
2023-01-22T03:02:49.866Z,101180.44
2023-01-22T03:05:38.441Z,101165.47
2023-01-22T03:08:27.244Z,101170.31
2023-01-22T03:11:17.462Z,101172.19
2023-01-22T03:14:24.298Z,101175.53
2023-01-22T03:17:30.651Z,101174.34
2023-01-22T03:20:36.931Z,101167.38
2023-01-22T03:23:27.885Z,101181.84
2023-01-22T03:26:18.068Z,101190.16
2023-01-22T03:29:06.654Z,101176.47
2023-01-22T03:31:55.276Z,101181.16
2023-01-22T03:34:44.080Z,101183.50
2023-01-22T03:37:32.690Z,101187.16
2023-01-22T03:40:21.276Z,101188.97
2023-01-22T03:43:11.265Z,101193.13
2023-01-22T03:46:07.292Z,101194.44
2023-01-22T03:48:55.948Z,101198.47
2023-01-22T03:51:45.180Z,101199.28
2023-01-22T03:54:33.889Z,101200.13
2023-01-22T03:57:22.494Z,101198.47
2023-01-22T04:00:14.156Z,101203.44
2023-01-22T04:03:02.709Z,101198.59
2023-01-22T04:05:51.303Z,101209.44
2023-01-22T04:08:43.007Z,101202.13
2023-01-22T04:11:31.666Z,101204.59
2023-01-22T04:14:20.245Z,101203.09
2023-01-22T04:17:10.420Z,101208.09
2023-01-22T04:19:59.016Z,101213.09
2023-01-22T04:22:49.026Z,101211.78
2023-01-22T04:25:37.952Z,101215.44
2023-01-22T04:28:26.691Z,101226.13
2023-01-22T04:31:15.449Z,101219.09
2023-01-22T04:34:05.562Z,101220.78
2023-01-22T04:36:54.194Z,101216.63
2023-01-22T04:39:42.769Z,101222.78
2023-01-22T04:42:31.359Z,101229.31
2023-01-22T04:45:20.177Z,101225.16
2023-01-22T04:48:10.985Z,101224.16
2023-01-22T04:51:01.144Z,101224.16
2023-01-22T04:53:49.796Z,101229.16
2023-01-22T04:56:38.395Z,101227.81
2023-01-22T04:59:26.973Z,101233.50
2023-01-22T05:02:15.612Z,101232.16
2023-01-22T05:05:04.386Z,101236.63
2023-01-22T05:07:54.397Z,101234.16
2023-01-22T05:10:43.115Z,101237.81
2023-01-22T05:13:31.947Z,101237.81
2023-01-22T05:16:20.511Z,101239.47
2023-01-22T05:19:09.121Z,101237.13
2023-01-22T05:21:57.762Z,101244.97
2023-01-22T05:24:47.764Z,101245.63
2023-01-22T05:27:36.449Z,101247.84
2023-01-22T05:30:24.992Z,101247.84
2023-01-22T05:33:13.663Z,101254.84
2023-01-22T05:36:03.579Z,101251.69
2023-01-22T05:38:52.158Z,101256.34
2023-01-22T05:41:42.193Z,101256.34
2023-01-22T05:44:32.776Z,101257.88
2023-01-22T05:47:22.081Z,101259.53
2023-01-22T05:50:11.905Z,101256.34
2023-01-22T05:53:00.577Z,101262.19
2023-01-22T05:55:49.154Z,101260.53
2023-01-22T05:58:39.165Z,101266.34
2023-01-22T06:01:28.145Z,101271.19
2023-01-22T06:04:16.746Z,101270.34
2023-01-22T06:07:05.370Z,101268.81
2023-01-22T06:09:53.923Z,101273.03
2023-01-22T06:12:42.531Z,101272.19
2023-01-22T06:15:32.610Z,101281.16
2023-01-22T06:18:21.476Z,101288.34
2023-01-22T06:21:10.713Z,101285.84
2023-01-22T06:23:59.313Z,101285.53
2023-01-22T06:26:48.005Z,101294.84
2023-01-22T06:29:38.624Z,101295.50
2023-01-22T06:32:29.886Z,101297.50
2023-01-22T06:35:18.611Z,101313.34
2023-01-22T06:38:07.403Z,101315.00
2023-01-22T06:40:56.477Z,101320.84
2023-01-22T06:43:45.125Z,101322.84
2023-01-22T06:46:33.771Z,101324.50
2023-01-22T06:49:23.790Z,101326.53
2023-01-22T06:52:12.414Z,101327.84
2023-01-22T06:55:01.009Z,101331.16
2023-01-22T06:57:49.684Z,101336.84
2023-01-22T07:00:38.280Z,101337.34
2023-01-22T07:03:26.985Z,101339.97
2023-01-22T07:06:18.827Z,101344.16
2023-01-22T07:09:07.470Z,101344.50
2023-01-22T07:11:57.423Z,101349.81
2023-01-22T07:14:46.089Z,101357.50
2023-01-22T07:17:34.695Z,101354.00
2023-01-22T07:20:24.434Z,101354.50
2023-01-22T07:23:14.493Z,101355.16
2023-01-22T07:26:03.168Z,101360.19
2023-01-22T07:28:51.792Z,101360.50
2023-01-22T07:31:40.430Z,101360.19
2023-01-22T07:34:29.134Z,101364.66
2023-01-22T07:37:17.798Z,101367.50
2023-01-22T07:40:09.176Z,101361.53
2023-01-22T07:42:58.000Z,101366.00
2023-01-22T07:45:47.015Z,101379.16
2023-01-22T07:48:35.975Z,101383.34
2023-01-22T07:51:24.690Z,101385.50
2023-01-22T07:54:13.358Z,101395.69
2023-01-22T07:57:03.526Z,101390.84
2023-01-22T07:59:52.143Z,101393.16
2023-01-22T08:02:42.188Z,101393.16
2023-01-22T08:05:30.783Z,101390.84
2023-01-22T08:08:21.332Z,101395.81
2023-01-22T08:11:10.247Z,101400.84
2023-01-22T08:14:00.250Z,101394.16
2023-01-22T08:16:48.961Z,101401.00
2023-01-22T08:19:37.588Z,101407.16
2023-01-22T08:22:26.231Z,101409.16
2023-01-22T08:25:14.931Z,101419.84
2023-01-22T08:30:59.460Z,101417.50
2023-01-22T08:33:48.209Z,101425.16
2023-01-22T08:36:36.919Z,101422.81
2023-01-22T08:39:25.552Z,101434.84
2023-01-22T08:42:14.130Z,101441.50
2023-01-22T08:45:02.739Z,101434.84
2023-01-22T08:47:58.029Z,101444.81
2023-01-22T08:50:46.743Z,101436.34
2023-01-22T08:53:35.461Z,101435.16
2023-01-22T08:56:24.024Z,101442.84
2023-01-22T08:59:12.626Z,101439.16
2023-01-22T09:02:01.369Z,101444.50
2023-01-22T09:04:51.394Z,101446.00
2023-01-22T09:07:39.946Z,101450.00
2023-01-22T09:10:28.644Z,101449.16
2023-01-22T09:13:17.312Z,101442.13
2023-01-22T09:16:10.716Z,101443.84
2023-01-22T09:18:59.304Z,101453.50
2023-01-22T09:21:49.260Z,101459.84
2023-01-22T09:24:37.797Z,101461.16
2023-01-22T09:27:26.478Z,101463.81
2023-01-22T09:30:15.577Z,101458.00
2023-01-22T09:33:04.277Z,101459.16
2023-01-22T09:35:53.243Z,101457.16
2023-01-22T09:38:43.271Z,101459.66
2023-01-22T09:41:34.597Z,101453.16
2023-01-22T09:44:33.841Z,101457.16
2023-01-22T09:47:29.469Z,101463.84
2023-01-22T09:50:21.048Z,101456.50
2023-01-22T09:53:13.566Z,101457.84
2023-01-22T09:56:07.092Z,101459.00
2023-01-22T09:58:56.901Z,101455.81
2023-01-22T10:01:47.800Z,101469.81
2023-01-22T10:04:38.115Z,101467.50
2023-01-22T10:07:36.986Z,101469.50
2023-01-22T10:10:28.210Z,101471.50
2023-01-22T10:13:20.962Z,101482.50
2023-01-22T10:16:09.970Z,101484.81
2023-01-22T10:19:02.599Z,101479.84
2023-01-22T10:21:53.369Z,101481.50
2023-01-22T10:24:41.966Z,101486.50
2023-01-22T10:27:35.998Z,101493.88
2023-01-22T10:30:27.334Z,101493.53
2023-01-22T10:33:20.295Z,101494.16
2023-01-22T10:36:09.411Z,101495.09
2023-01-22T10:39:06.051Z,101491.94
2023-01-22T10:42:02.437Z,101497.16
2023-01-22T10:44:51.367Z,101499.09
2023-01-22T10:47:41.413Z,101491.53
2023-01-22T10:50:29.981Z,101483.47
2023-01-22T10:53:21.751Z,101490.00
2023-01-22T10:56:12.987Z,101485.38
2023-01-22T10:59:05.279Z,101488.91
2023-01-22T11:01:59.176Z,101493.41
2023-01-22T11:04:49.211Z,101501.78
2023-01-22T11:07:37.909Z,101499.09
2023-01-22T11:10:32.875Z,101495.31
2023-01-22T11:13:23.686Z,101489.47
2023-01-22T11:16:16.323Z,101489.47
2023-01-22T11:19:08.143Z,101485.97
2023-01-22T11:21:58.690Z,101489.63
2023-01-22T11:24:48.536Z,101494.47
2023-01-22T11:27:59.725Z,101490.50
2023-01-22T11:31:10.391Z,101502.09
2023-01-22T11:34:22.521Z,101504.59
2023-01-22T11:37:15.371Z,101509.25
2023-01-22T11:40:04.436Z,101503.22
2023-01-22T11:43:09.215Z,101501.19
2023-01-22T11:46:11.191Z,101495.97
2023-01-22T11:49:06.666Z,101499.13
2023-01-22T11:52:05.418Z,101494.25
2023-01-22T11:55:06.084Z,101488.03
2023-01-22T11:58:00.432Z,101490.25
2023-01-22T12:00:55.977Z,101490.28
2023-01-22T12:04:19.454Z,101489.69
2023-01-22T12:07:30.724Z,101482.16
2023-01-22T12:10:35.121Z,101475.88
2023-01-22T12:13:36.585Z,101473.03
2023-01-22T12:16:31.276Z,101478.63
2023-01-22T12:19:32.282Z,101472.91
2023-01-22T12:22:30.829Z,101485.50
2023-01-22T12:25:34.228Z,101486.94
2023-01-22T12:28:27.397Z,101475.31
2023-01-22T12:31:20.826Z,101479.81
2023-01-22T12:34:15.313Z,101470.28
2023-01-22T12:37:05.827Z,101483.38
2023-01-22T12:40:05.649Z,101489.31
2023-01-22T12:43:00.909Z,101484.91
2023-01-22T12:45:55.507Z,101476.19
2023-01-22T12:48:49.663Z,101480.88
2023-01-22T12:51:41.286Z,101480.03
2023-01-22T12:54:32.312Z,101488.38
2023-01-22T12:57:25.400Z,101488.56
2023-01-22T13:00:34.211Z,101486.88
2023-01-22T13:03:31.587Z,101482.66
2023-01-22T13:06:22.629Z,101475.16
2023-01-22T13:09:25.898Z,101478.84
2023-01-22T13:12:27.701Z,101482.84
2023-01-22T13:15:19.962Z,101489.56
2023-01-22T13:18:21.256Z,101498.13
2023-01-22T13:21:10.969Z,101514.59
2023-01-22T13:24:01.168Z,101505.75
2023-01-22T13:26:55.226Z,101514.69
2023-01-22T13:29:45.759Z,101508.06
2023-01-22T13:32:34.419Z,101507.38
2023-01-22T13:35:24.374Z,101517.44
2023-01-22T13:38:20.793Z,101515.94
2023-01-22T13:41:13.585Z,101516.78
2023-01-22T13:44:02.672Z,101520.81
2023-01-22T13:46:51.958Z,101520.47
2023-01-22T13:49:44.234Z,101520.66
2023-01-22T13:52:34.270Z,101524.31
2023-01-22T13:55:24.442Z,101527.34
2023-01-22T13:58:33.033Z,101524.00
2023-01-22T14:01:30.182Z,101533.50
2023-01-22T14:04:34.437Z,101530.19
2023-01-22T14:07:27.964Z,101538.22
2023-01-22T14:10:19.708Z,101532.16
2023-01-22T14:13:10.618Z,101536.19
2023-01-22T14:16:06.764Z,101543.00
2023-01-22T14:18:55.381Z,101536.06
2023-01-22T14:21:44.281Z,101535.78
2023-01-22T14:24:32.853Z,101531.94
2023-01-22T14:27:23.754Z,101540.50
2023-01-22T14:30:14.865Z,101539.81
2023-01-22T14:33:03.541Z,101536.66
2023-01-22T14:35:52.223Z,101531.78
2023-01-22T14:38:40.924Z,101535.13
2023-01-22T14:41:29.661Z,101531.78
2023-01-22T14:44:20.888Z,101524.56
2023-01-22T14:47:09.815Z,101520.72
2023-01-22T14:49:58.609Z,101532.09
2023-01-22T14:52:47.605Z,101529.06
2023-01-22T14:55:36.928Z,101534.09
2023-01-22T14:58:26.867Z,101544.28
2023-01-22T15:01:17.985Z,101533.78
2023-01-22T15:04:06.861Z,101538.16
2023-01-22T15:06:55.593Z,101543.50
2023-01-22T15:09:44.648Z,101545.72
2023-01-22T15:12:33.599Z,101546.31
2023-01-22T15:15:26.515Z,101541.59
2023-01-22T15:18:16.652Z,101550.25
2023-01-22T15:21:06.466Z,101556.72
2023-01-22T15:23:55.580Z,101552.06
2023-01-22T15:26:44.378Z,101547.59
2023-01-22T15:29:36.165Z,101548.84
2023-01-22T15:32:25.868Z,101549.34
2023-01-22T15:35:15.937Z,101552.78
2023-01-22T15:38:05.357Z,101549.09
2023-01-22T15:41:03.960Z,101550.31
2023-01-22T15:43:54.375Z,101540.09
2023-01-22T15:46:44.703Z,101540.22
2023-01-22T15:49:33.354Z,101545.44
2023-01-22T15:52:23.339Z,101552.78
2023-01-22T15:55:12.087Z,101558.28
2023-01-22T15:58:00.864Z,101570.31
2023-01-22T16:00:49.477Z,101571.13
2023-01-22T16:03:38.126Z,101580.25
2023-01-22T16:06:28.675Z,101582.28
2023-01-22T16:09:18.808Z,101580.75
2023-01-22T16:12:09.062Z,101584.31
2023-01-22T16:14:57.677Z,101599.78
2023-01-22T16:17:47.597Z,101588.44
2023-01-22T16:20:36.282Z,101593.78
2023-01-22T16:23:24.898Z,101593.59
2023-01-22T16:26:17.370Z,101598.59
2023-01-22T16:29:07.135Z,101600.09
2023-01-22T16:31:55.859Z,101606.63
2023-01-22T16:34:44.484Z,101598.06
2023-01-22T16:37:33.113Z,101605.09
2023-01-22T16:40:21.699Z,101595.56
2023-01-22T16:43:11.738Z,101603.75
2023-01-22T16:46:00.437Z,101605.78
2023-01-22T16:48:49.530Z,101610.03
2023-01-22T16:51:39.576Z,101605.13
2023-01-22T16:54:29.513Z,101621.06
2023-01-22T16:57:19.303Z,101611.50
2023-01-22T17:00:11.390Z,101616.97
2023-01-22T17:03:00.347Z,101613.13
2023-01-22T17:05:49.814Z,101617.44
2023-01-22T17:08:38.369Z,101615.78
2023-01-22T17:11:27.120Z,101616.72
2023-01-22T17:14:16.625Z,101618.38
2023-01-22T17:17:07.831Z,101617.69
2023-01-22T17:19:56.481Z,101624.72
2023-01-22T17:22:45.115Z,101624.00
2023-01-22T17:25:33.784Z,101629.38
2023-01-22T17:28:22.612Z,101619.94
2023-01-22T17:31:12.627Z,101623.38
2023-01-22T17:34:04.115Z,101635.00
2023-01-22T17:36:52.736Z,101633.06
2023-01-22T17:39:43.002Z,101638.75
2023-01-22T17:42:31.814Z,101651.84
2023-01-22T17:45:21.163Z,101645.66
2023-01-22T17:48:09.947Z,101657.91
2023-01-22T17:51:05.260Z,101655.41
2023-01-22T17:53:55.611Z,101660.28
2023-01-22T17:56:47.225Z,101659.75
2023-01-22T17:59:35.815Z,101666.28
2023-01-22T18:02:24.599Z,101677.16
2023-01-22T18:05:14.080Z,101668.00
2023-01-22T18:08:04.100Z,101665.31
2023-01-22T18:10:53.621Z,101669.69
2023-01-22T18:13:42.688Z,101677.00
2023-01-22T18:16:33.000Z,101677.00
2023-01-22T18:19:23.411Z,101675.34
2023-01-22T18:22:12.031Z,101680.03
2023-01-22T18:25:01.987Z,101679.72
2023-01-22T18:27:50.806Z,101691.44
2023-01-22T18:30:39.555Z,101689.59
2023-01-22T18:33:28.318Z,101694.47
2023-01-22T18:36:19.002Z,101693.38
2023-01-22T18:39:09.704Z,101698.25
2023-01-22T18:41:59.870Z,101701.22
2023-01-22T18:44:48.626Z,101702.59
2023-01-22T18:47:37.857Z,101703.31
2023-01-22T18:50:26.478Z,101702.00
2023-01-22T18:53:16.082Z,101708.03
2023-01-22T18:56:06.991Z,101712.72
2023-01-22T18:58:57.285Z,101709.84
2023-01-22T19:01:51.234Z,101715.72
2023-01-22T19:04:39.950Z,101719.72
2023-01-22T19:07:28.544Z,101711.06
2023-01-22T19:10:17.274Z,101719.06
2023-01-22T19:13:05.888Z,101722.25
2023-01-22T19:15:56.017Z,101727.78
2023-01-22T19:18:46.614Z,101721.09
2023-01-22T19:21:35.471Z,101727.78
2023-01-22T19:24:26.733Z,101735.13
2023-01-22T19:27:17.460Z,101725.44
2023-01-22T19:30:07.254Z,101741.28
2023-01-22T19:32:57.305Z,101734.47
2023-01-22T19:35:49.528Z,101739.44
2023-01-22T19:38:38.382Z,101749.50
2023-01-22T19:41:27.566Z,101747.78
2023-01-22T19:44:16.445Z,101754.53
2023-01-22T19:47:05.392Z,101750.84
2023-01-22T19:49:55.416Z,101752.53
2023-01-22T19:52:44.023Z,101748.66
2023-01-22T19:55:37.220Z,101750.97
2023-01-22T19:58:26.390Z,101761.41
2023-01-22T20:01:15.777Z,101759.53
2023-01-22T20:04:06.967Z,101759.19
2023-01-22T20:07:01.062Z,101764.19
2023-01-22T20:09:49.691Z,101768.53
2023-01-22T20:12:38.376Z,101770.22
2023-01-22T20:15:27.205Z,101772.56
2023-01-22T20:18:15.802Z,101764.53
2023-01-22T20:21:04.812Z,101772.56
2023-01-22T20:23:54.847Z,101764.22
2023-01-22T20:26:43.517Z,101772.56
2023-01-22T20:29:32.210Z,101785.09
2023-01-22T20:32:20.835Z,101779.59
2023-01-22T20:35:11.697Z,101778.91
2023-01-22T20:38:00.465Z,101777.56
2023-01-22T20:40:50.559Z,101783.59
2023-01-22T20:43:40.081Z,101785.28
2023-01-22T20:46:32.276Z,101781.25
2023-01-22T20:49:20.903Z,101793.59
2023-01-22T20:52:09.470Z,101791.94
2023-01-22T20:55:01.807Z,101794.94
2023-01-22T20:57:52.783Z,101794.94
2023-01-22T21:00:41.584Z,101794.94
2023-01-22T21:03:31.037Z,101811.31
2023-01-22T21:06:20.832Z,101805.47
2023-01-22T21:09:10.852Z,101807.31
2023-01-22T21:12:00.114Z,101807.31
2023-01-22T21:14:54.440Z,101813.66
2023-01-22T21:17:43.158Z,101820.66
2023-01-22T21:20:31.808Z,101818.66
2023-01-22T21:23:20.428Z,101809.31
2023-01-22T21:26:10.465Z,101815.63
2023-01-22T21:29:00.933Z,101820.56
2023-01-22T21:31:52.324Z,101823.84
2023-01-22T21:34:40.933Z,101828.09
2023-01-22T21:37:29.601Z,101839.19
2023-01-22T21:40:19.206Z,101846.53
2023-01-22T21:43:26.080Z,101838.16
2023-01-22T21:46:25.196Z,101845.34
2023-01-22T21:49:20.918Z,101853.25
2023-01-22T21:52:09.529Z,101856.75
2023-01-22T21:54:59.125Z,101860.25
2023-01-22T21:57:47.748Z,101866.91
2023-01-22T22:00:36.344Z,101864.97
2023-01-22T22:03:24.960Z,101868.25
2023-01-22T22:06:15.425Z,101863.44
2023-01-22T22:09:06.117Z,101862.09
2023-01-22T22:11:56.918Z,101864.09
2023-01-22T22:14:45.479Z,101867.25
2023-01-22T22:17:34.192Z,101873.09
2023-01-22T22:20:22.843Z,101876.25
2023-01-22T22:23:12.891Z,101880.31
2023-01-22T22:26:01.655Z,101879.78
2023-01-22T22:28:50.252Z,101884.56
2023-01-22T22:31:39.464Z,101891.66
2023-01-22T22:34:28.129Z,101881.97
2023-01-22T22:37:17.030Z,101886.69
2023-01-22T22:40:08.038Z,101892.34
2023-01-22T22:42:56.650Z,101893.13
2023-01-22T22:45:45.301Z,101889.91
2023-01-22T22:48:36.732Z,101889.59
2023-01-22T22:51:27.019Z,101897.13
2023-01-22T22:54:17.653Z,101896.31
2023-01-22T22:57:07.678Z,101897.97
2023-01-22T22:59:56.224Z,101896.59
2023-01-22T23:02:44.920Z,101897.97
2023-01-22T23:05:38.037Z,101914.31
2023-01-22T23:08:26.665Z,101914.31
2023-01-22T23:11:16.949Z,101915.97
2023-01-22T23:14:08.049Z,101915.91
2023-01-22T23:16:57.672Z,101917.94
2023-01-22T23:19:46.334Z,101921.59
2023-01-22T23:22:34.949Z,101937.41
2023-01-22T23:25:23.580Z,101937.25
2023-01-22T23:28:12.138Z,101938.25
2023-01-22T23:31:07.283Z,101942.91
2023-01-22T23:33:56.501Z,101938.25
2023-01-22T23:36:46.844Z,101936.91
2023-01-22T23:39:35.498Z,101936.91
2023-01-22T23:42:24.222Z,101940.84
2023-01-22T23:45:14.271Z,101933.59
2023-01-22T23:48:04.521Z,101938.56
2023-01-22T23:50:54.677Z,101938.84
2023-01-22T23:53:45.343Z,101946.56
2023-01-22T23:56:34.222Z,101950.22
2023-01-22T23:59:23.564Z,101956.25
